sensor_id;sensor_type;location;lat;lon;timestamp;P1;durP1;ratioP1;P2;durP2;ratioP2
38611;SDS011;24368;52.156;20.788;2022-12-07T00:01:26;45.50;;;33.20;;
38611;SDS011;24368;52.156;20.788;2022-12-07T00:06:28;43.10;;;32.60;;
38611;SDS011;24368;52.156;20.788;2022-12-07T00:11:29;40.90;;;31.90;;
38611;SDS011;24368;52.156;20.788;2022-12-07T00:16:31;43.40;;;31.50;;
38611;SDS011;24368;52.156;20.788;2022-12-07T00:21:34;38.00;;;30.60;;
38611;SDS011;24368;52.156;20.788;2022-12-07T00:26:37;38.00;;;27.30;;
38611;SDS011;24368;52.156;20.788;2022-12-07T00:31:40;37.80;;;26.50;;
38611;SDS011;24368;52.156;20.788;2022-12-07T00:36:41;38.00;;;25.60;;
38611;SDS011;24368;52.156;20.788;2022-12-07T00:41:42;31.20;;;24.90;;
38611;SDS011;24368;52.156;20.788;2022-12-07T00:46:43;28.60;;;23.00;;
38611;SDS011;24368;52.156;20.788;2022-12-07T00:51:47;24.20;;;18.60;;
38611;SDS011;24368;52.156;20.788;2022-12-07T00:56:49;21.60;;;16.50;;
38611;SDS011;24368;52.156;20.788;2022-12-07T01:01:50;16.00;;;12.20;;
38611;SDS011;24368;52.156;20.788;2022-12-07T01:06:51;17.00;;;12.30;;
38611;SDS011;24368;52.156;20.788;2022-12-07T01:11:52;15.30;;;11.60;;
38611;SDS011;24368;52.156;20.788;2022-12-07T01:16:53;13.60;;;11.10;;
38611;SDS011;24368;52.156;20.788;2022-12-07T01:21:54;15.50;;;11.70;;
38611;SDS011;24368;52.156;20.788;2022-12-07T01:26:55;15.10;;;11.70;;
38611;SDS011;24368;52.156;20.788;2022-12-07T01:31:56;11.50;;;10.30;;
38611;SDS011;24368;52.156;20.788;2022-12-07T01:36:57;15.60;;;10.90;;
38611;SDS011;24368;52.156;20.788;2022-12-07T01:42:00;12.90;;;10.20;;
38611;SDS011;24368;52.156;20.788;2022-12-07T01:47:02;14.30;;;11.00;;
38611;SDS011;24368;52.156;20.788;2022-12-07T01:57:16;11.80;;;9.80;;
38611;SDS011;24368;52.156;20.788;2022-12-07T02:02:23;11.20;;;9.30;;
38611;SDS011;24368;52.156;20.788;2022-12-07T02:07:28;11.90;;;10.60;;
38611;SDS011;24368;52.156;20.788;2022-12-07T02:12:30;15.00;;;11.10;;
38611;SDS011;24368;52.156;20.788;2022-12-07T02:17:38;12.90;;;10.10;;
38611;SDS011;24368;52.156;20.788;2022-12-07T02:34:20;9.10;;;7.80;;
38611;SDS011;24368;52.156;20.788;2022-12-07T02:39:37;6.70;;;6.00;;
38611;SDS011;24368;52.156;20.788;2022-12-07T02:44:52;5.50;;;4.80;;
38611;SDS011;24368;52.156;20.788;2022-12-07T02:49:54;5.50;;;5.00;;
38611;SDS011;24368;52.156;20.788;2022-12-07T02:54:56;5.60;;;5.00;;
38611;SDS011;24368;52.156;20.788;2022-12-07T03:11:10;6.40;;;5.40;;
38611;SDS011;24368;52.156;20.788;2022-12-07T03:16:18;5.50;;;4.90;;
38611;SDS011;24368;52.156;20.788;2022-12-07T03:21:32;5.80;;;5.00;;
38611;SDS011;24368;52.156;20.788;2022-12-07T03:26:38;6.40;;;5.40;;
38611;SDS011;24368;52.156;20.788;2022-12-07T03:36:49;6.80;;;5.70;;
38611;SDS011;24368;52.156;20.788;2022-12-07T03:41:55;5.70;;;5.10;;
38611;SDS011;24368;52.156;20.788;2022-12-07T03:47:01;5.70;;;5.20;;
38611;SDS011;24368;52.156;20.788;2022-12-07T03:52:53;5.60;;;5.10;;
38611;SDS011;24368;52.156;20.788;2022-12-07T03:57:39;6.40;;;5.60;;
38611;SDS011;24368;52.156;20.788;2022-12-07T04:02:44;5.80;;;5.30;;
38611;SDS011;24368;52.156;20.788;2022-12-07T04:07:45;6.10;;;5.50;;
38611;SDS011;24368;52.156;20.788;2022-12-07T04:12:46;6.40;;;5.80;;
38611;SDS011;24368;52.156;20.788;2022-12-07T04:17:47;6.50;;;5.80;;
38611;SDS011;24368;52.156;20.788;2022-12-07T04:22:48;6.90;;;6.20;;
38611;SDS011;24368;52.156;20.788;2022-12-07T04:27:49;7.10;;;6.40;;
38611;SDS011;24368;52.156;20.788;2022-12-07T04:32:50;7.50;;;6.80;;
38611;SDS011;24368;52.156;20.788;2022-12-07T04:37:51;7.00;;;6.30;;
38611;SDS011;24368;52.156;20.788;2022-12-07T04:42:52;7.80;;;7.00;;
38611;SDS011;24368;52.156;20.788;2022-12-07T04:47:53;8.20;;;6.50;;
38611;SDS011;24368;52.156;20.788;2022-12-07T04:52:54;6.40;;;5.80;;
38611;SDS011;24368;52.156;20.788;2022-12-07T04:57:55;7.10;;;6.30;;
38611;SDS011;24368;52.156;20.788;2022-12-07T05:02:56;6.60;;;6.00;;
38611;SDS011;24368;52.156;20.788;2022-12-07T05:07:57;7.30;;;6.40;;
38611;SDS011;24368;52.156;20.788;2022-12-07T05:12:58;7.40;;;6.30;;
38611;SDS011;24368;52.156;20.788;2022-12-07T05:17:59;6.90;;;6.20;;
38611;SDS011;24368;52.156;20.788;2022-12-07T05:23:00;7.30;;;6.20;;
38611;SDS011;24368;52.156;20.788;2022-12-07T05:28:01;7.20;;;6.10;;
38611;SDS011;24368;52.156;20.788;2022-12-07T05:33:03;7.60;;;6.70;;
38611;SDS011;24368;52.156;20.788;2022-12-07T05:38:04;6.80;;;6.00;;
38611;SDS011;24368;52.156;20.788;2022-12-07T05:43:05;8.10;;;7.30;;
38611;SDS011;24368;52.156;20.788;2022-12-07T05:48:06;8.20;;;7.40;;
38611;SDS011;24368;52.156;20.788;2022-12-07T05:53:07;7.70;;;7.00;;
38611;SDS011;24368;52.156;20.788;2022-12-07T05:58:08;8.70;;;7.70;;
38611;SDS011;24368;52.156;20.788;2022-12-07T06:03:28;11.40;;;9.70;;
38611;SDS011;24368;52.156;20.788;2022-12-07T06:08:29;9.90;;;8.90;;
38611;SDS011;24368;52.156;20.788;2022-12-07T06:13:29;9.60;;;8.70;;
38611;SDS011;24368;52.156;20.788;2022-12-07T06:18:30;9.30;;;8.00;;
38611;SDS011;24368;52.156;20.788;2022-12-07T06:23:32;8.30;;;7.40;;
38611;SDS011;24368;52.156;20.788;2022-12-07T06:28:33;9.90;;;8.80;;
38611;SDS011;24368;52.156;20.788;2022-12-07T06:33:34;8.00;;;6.60;;
38611;SDS011;24368;52.156;20.788;2022-12-07T06:38:35;9.90;;;8.90;;
38611;SDS011;24368;52.156;20.788;2022-12-07T06:43:36;11.40;;;8.90;;
38611;SDS011;24368;52.156;20.788;2022-12-07T06:48:37;9.10;;;8.10;;
38611;SDS011;24368;52.156;20.788;2022-12-07T06:53:38;10.10;;;8.30;;
38611;SDS011;24368;52.156;20.788;2022-12-07T06:58:39;8.60;;;7.80;;
38611;SDS011;24368;52.156;20.788;2022-12-07T07:03:41;8.50;;;7.60;;
38611;SDS011;24368;52.156;20.788;2022-12-07T07:08:42;10.40;;;9.20;;
38611;SDS011;24368;52.156;20.788;2022-12-07T07:13:43;9.10;;;7.80;;
38611;SDS011;24368;52.156;20.788;2022-12-07T07:18:45;9.00;;;8.10;;
38611;SDS011;24368;52.156;20.788;2022-12-07T07:23:46;8.40;;;7.60;;
38611;SDS011;24368;52.156;20.788;2022-12-07T07:28:47;8.00;;;7.20;;
38611;SDS011;24368;52.156;20.788;2022-12-07T07:33:48;10.80;;;8.10;;
38611;SDS011;24368;52.156;20.788;2022-12-07T07:38:49;8.80;;;7.90;;
38611;SDS011;24368;52.156;20.788;2022-12-07T07:43:50;9.80;;;7.80;;
38611;SDS011;24368;52.156;20.788;2022-12-07T07:48:51;9.50;;;7.60;;
38611;SDS011;24368;52.156;20.788;2022-12-07T07:53:52;8.20;;;7.10;;
38611;SDS011;24368;52.156;20.788;2022-12-07T07:58:54;7.80;;;6.90;;
38611;SDS011;24368;52.156;20.788;2022-12-07T08:03:55;6.90;;;6.10;;
38611;SDS011;24368;52.156;20.788;2022-12-07T08:08:56;10.40;;;7.80;;
38611;SDS011;24368;52.156;20.788;2022-12-07T08:13:58;8.70;;;7.90;;
38611;SDS011;24368;52.156;20.788;2022-12-07T08:19:00;8.50;;;7.40;;
38611;SDS011;24368;52.156;20.788;2022-12-07T08:24:01;12.10;;;9.30;;
38611;SDS011;24368;52.156;20.788;2022-12-07T08:29:02;11.80;;;8.90;;
38611;SDS011;24368;52.156;20.788;2022-12-07T08:34:03;11.70;;;10.10;;
38611;SDS011;24368;52.156;20.788;2022-12-07T08:39:04;11.10;;;8.20;;
38611;SDS011;24368;52.156;20.788;2022-12-07T08:44:06;12.30;;;9.10;;
38611;SDS011;24368;52.156;20.788;2022-12-07T08:49:11;10.80;;;8.10;;
38611;SDS011;24368;52.156;20.788;2022-12-07T08:54:16;12.60;;;10.20;;
38611;SDS011;24368;52.156;20.788;2022-12-07T08:59:19;12.00;;;10.20;;
38611;SDS011;24368;52.156;20.788;2022-12-07T09:04:21;12.80;;;9.90;;
38611;SDS011;24368;52.156;20.788;2022-12-07T09:09:22;14.40;;;11.20;;
38611;SDS011;24368;52.156;20.788;2022-12-07T09:14:23;13.10;;;11.40;;
38611;SDS011;24368;52.156;20.788;2022-12-07T09:19:24;12.70;;;9.40;;
38611;SDS011;24368;52.156;20.788;2022-12-07T09:24:25;15.80;;;11.00;;
38611;SDS011;24368;52.156;20.788;2022-12-07T09:29:26;15.30;;;11.10;;
38611;SDS011;24368;52.156;20.788;2022-12-07T09:34:30;17.20;;;13.00;;
38611;SDS011;24368;52.156;20.788;2022-12-07T09:39:32;14.70;;;11.00;;
38611;SDS011;24368;52.156;20.788;2022-12-07T09:44:33;12.50;;;10.20;;
38611;SDS011;24368;52.156;20.788;2022-12-07T09:49:36;13.90;;;10.80;;
38611;SDS011;24368;52.156;20.788;2022-12-07T09:54:38;12.30;;;9.40;;
38611;SDS011;24368;52.156;20.788;2022-12-07T09:59:44;12.60;;;10.00;;
38611;SDS011;24368;52.156;20.788;2022-12-07T10:04:45;12.50;;;9.40;;
38611;SDS011;24368;52.156;20.788;2022-12-07T10:09:47;11.30;;;10.10;;
38611;SDS011;24368;52.156;20.788;2022-12-07T10:14:53;12.00;;;10.20;;
38611;SDS011;24368;52.156;20.788;2022-12-07T10:20:18;23.00;;;16.60;;
38611;SDS011;24368;52.156;20.788;2022-12-07T10:25:27;11.80;;;10.00;;
38611;SDS011;24368;52.156;20.788;2022-12-07T10:35:32;12.00;;;9.90;;
38611;SDS011;24368;52.156;20.788;2022-12-07T10:40:36;11.80;;;10.40;;
38611;SDS011;24368;52.156;20.788;2022-12-07T11:01:49;11.10;;;9.80;;
38611;SDS011;24368;52.156;20.788;2022-12-07T11:07:10;11.90;;;9.60;;
38611;SDS011;24368;52.156;20.788;2022-12-07T11:18:07;10.50;;;8.40;;
38611;SDS011;24368;52.156;20.788;2022-12-07T11:34:52;10.80;;;9.60;;
38611;SDS011;24368;52.156;20.788;2022-12-07T11:40:02;11.50;;;10.20;;
38611;SDS011;24368;52.156;20.788;2022-12-07T11:45:15;13.00;;;10.20;;
38611;SDS011;24368;52.156;20.788;2022-12-07T11:50:30;11.20;;;9.60;;
38611;SDS011;24368;52.156;20.788;2022-12-07T11:55:48;10.40;;;9.30;;
38611;SDS011;24368;52.156;20.788;2022-12-07T12:01:03;11.80;;;10.50;;
38611;SDS011;24368;52.156;20.788;2022-12-07T12:06:20;10.60;;;9.00;;
38611;SDS011;24368;52.156;20.788;2022-12-07T12:16:43;13.20;;;9.90;;
38611;SDS011;24368;52.156;20.788;2022-12-07T12:22:15;13.50;;;11.00;;
38611;SDS011;24368;52.156;20.788;2022-12-07T12:27:25;9.90;;;8.60;;
38611;SDS011;24368;52.156;20.788;2022-12-07T12:37:43;8.60;;;7.50;;
38611;SDS011;24368;52.156;20.788;2022-12-07T12:42:49;9.80;;;8.80;;
38611;SDS011;24368;52.156;20.788;2022-12-07T12:47:54;10.10;;;9.10;;
38611;SDS011;24368;52.156;20.788;2022-12-07T12:59:25;8.90;;;8.00;;
38611;SDS011;24368;52.156;20.788;2022-12-07T13:04:18;9.10;;;8.30;;
38611;SDS011;24368;52.156;20.788;2022-12-07T13:09:27;8.70;;;7.80;;
38611;SDS011;24368;52.156;20.788;2022-12-07T13:14:42;8.80;;;7.90;;
38611;SDS011;24368;52.156;20.788;2022-12-07T13:19:55;10.10;;;8.90;;
38611;SDS011;24368;52.156;20.788;2022-12-07T13:24:56;12.70;;;10.90;;
38611;SDS011;24368;52.156;20.788;2022-12-07T13:29:57;9.50;;;8.60;;
38611;SDS011;24368;52.156;20.788;2022-12-07T13:34:59;13.20;;;11.80;;
38611;SDS011;24368;52.156;20.788;2022-12-07T13:40:01;13.00;;;11.30;;
38611;SDS011;24368;52.156;20.788;2022-12-07T13:45:21;9.60;;;8.70;;
38611;SDS011;24368;52.156;20.788;2022-12-07T13:50:48;12.30;;;10.80;;
38611;SDS011;24368;52.156;20.788;2022-12-07T13:56:00;8.50;;;7.70;;
38611;SDS011;24368;52.156;20.788;2022-12-07T14:01:02;8.70;;;7.90;;
38611;SDS011;24368;52.156;20.788;2022-12-07T14:06:05;9.70;;;8.50;;
38611;SDS011;24368;52.156;20.788;2022-12-07T14:11:18;11.70;;;10.50;;
38611;SDS011;24368;52.156;20.788;2022-12-07T14:21:36;11.30;;;10.20;;
38611;SDS011;24368;52.156;20.788;2022-12-07T14:26:38;12.00;;;10.70;;
38611;SDS011;24368;52.156;20.788;2022-12-07T14:31:41;11.60;;;10.40;;
38611;SDS011;24368;52.156;20.788;2022-12-07T14:36:42;9.90;;;9.00;;
38611;SDS011;24368;52.156;20.788;2022-12-07T14:41:43;10.70;;;9.80;;
38611;SDS011;24368;52.156;20.788;2022-12-07T14:46:53;12.40;;;10.70;;
38611;SDS011;24368;52.156;20.788;2022-12-07T14:51:55;10.70;;;9.70;;
38611;SDS011;24368;52.156;20.788;2022-12-07T14:56:56;10.90;;;9.80;;
38611;SDS011;24368;52.156;20.788;2022-12-07T15:01:57;12.50;;;11.20;;
38611;SDS011;24368;52.156;20.788;2022-12-07T15:06:59;13.60;;;12.20;;
38611;SDS011;24368;52.156;20.788;2022-12-07T15:12:04;14.80;;;12.60;;
38611;SDS011;24368;52.156;20.788;2022-12-07T15:17:06;15.60;;;12.80;;
38611;SDS011;24368;52.156;20.788;2022-12-07T15:22:07;19.40;;;15.00;;
38611;SDS011;24368;52.156;20.788;2022-12-07T15:27:11;15.30;;;12.40;;
38611;SDS011;24368;52.156;20.788;2022-12-07T15:32:15;29.70;;;18.80;;
38611;SDS011;24368;52.156;20.788;2022-12-07T15:37:16;14.70;;;11.50;;
38611;SDS011;24368;52.156;20.788;2022-12-07T15:42:17;13.20;;;10.70;;
38611;SDS011;24368;52.156;20.788;2022-12-07T15:47:18;12.30;;;10.30;;
38611;SDS011;24368;52.156;20.788;2022-12-07T15:52:19;17.20;;;12.30;;
38611;SDS011;24368;52.156;20.788;2022-12-07T15:57:20;11.70;;;10.20;;
38611;SDS011;24368;52.156;20.788;2022-12-07T16:02:21;13.20;;;10.50;;
38611;SDS011;24368;52.156;20.788;2022-12-07T16:07:24;12.80;;;11.50;;
38611;SDS011;24368;52.156;20.788;2022-12-07T16:12:25;19.90;;;15.60;;
38611;SDS011;24368;52.156;20.788;2022-12-07T16:17:26;14.70;;;12.40;;
38611;SDS011;24368;52.156;20.788;2022-12-07T16:22:27;19.30;;;15.60;;
38611;SDS011;24368;52.156;20.788;2022-12-07T16:27:28;13.60;;;12.20;;
38611;SDS011;24368;52.156;20.788;2022-12-07T16:32:29;13.40;;;11.90;;
38611;SDS011;24368;52.156;20.788;2022-12-07T16:37:30;17.60;;;12.90;;
38611;SDS011;24368;52.156;20.788;2022-12-07T16:42:32;16.20;;;13.80;;
38611;SDS011;24368;52.156;20.788;2022-12-07T16:47:36;15.90;;;14.20;;
38611;SDS011;24368;52.156;20.788;2022-12-07T16:52:38;17.10;;;13.70;;
38611;SDS011;24368;52.156;20.788;2022-12-07T16:57:39;16.90;;;15.00;;
38611;SDS011;24368;52.156;20.788;2022-12-07T17:02:40;17.10;;;14.10;;
38611;SDS011;24368;52.156;20.788;2022-12-07T17:07:41;16.70;;;13.50;;
38611;SDS011;24368;52.156;20.788;2022-12-07T17:12:42;13.20;;;11.80;;
38611;SDS011;24368;52.156;20.788;2022-12-07T17:17:46;12.80;;;11.50;;
38611;SDS011;24368;52.156;20.788;2022-12-07T17:22:53;13.20;;;11.50;;
38611;SDS011;24368;52.156;20.788;2022-12-07T17:27:54;12.00;;;10.60;;
38611;SDS011;24368;52.156;20.788;2022-12-07T17:32:55;12.10;;;10.30;;
38611;SDS011;24368;52.156;20.788;2022-12-07T17:37:56;10.90;;;9.50;;
38611;SDS011;24368;52.156;20.788;2022-12-07T17:42:57;13.10;;;11.80;;
38611;SDS011;24368;52.156;20.788;2022-12-07T17:47:58;12.30;;;10.90;;
38611;SDS011;24368;52.156;20.788;2022-12-07T17:52:59;13.60;;;11.60;;
38611;SDS011;24368;52.156;20.788;2022-12-07T17:58:12;13.80;;;12.10;;
38611;SDS011;24368;52.156;20.788;2022-12-07T18:03:13;13.20;;;11.80;;
38611;SDS011;24368;52.156;20.788;2022-12-07T18:08:14;10.80;;;9.70;;
38611;SDS011;24368;52.156;20.788;2022-12-07T18:13:15;15.30;;;12.30;;
38611;SDS011;24368;52.156;20.788;2022-12-07T18:18:36;15.70;;;12.70;;
38611;SDS011;24368;52.156;20.788;2022-12-07T18:23:37;11.60;;;10.20;;
38611;SDS011;24368;52.156;20.788;2022-12-07T18:28:38;12.40;;;11.20;;
38611;SDS011;24368;52.156;20.788;2022-12-07T18:33:40;12.20;;;10.90;;
38611;SDS011;24368;52.156;20.788;2022-12-07T18:38:42;11.80;;;9.70;;
38611;SDS011;24368;52.156;20.788;2022-12-07T18:43:43;9.40;;;8.40;;
38611;SDS011;24368;52.156;20.788;2022-12-07T18:48:45;9.10;;;8.20;;
38611;SDS011;24368;52.156;20.788;2022-12-07T18:53:47;8.00;;;7.30;;
38611;SDS011;24368;52.156;20.788;2022-12-07T18:58:50;9.00;;;8.10;;
38611;SDS011;24368;52.156;20.788;2022-12-07T19:04:11;8.40;;;7.60;;
38611;SDS011;24368;52.156;20.788;2022-12-07T19:09:12;10.90;;;8.30;;
38611;SDS011;24368;52.156;20.788;2022-12-07T19:14:15;8.50;;;7.60;;
38611;SDS011;24368;52.156;20.788;2022-12-07T19:19:17;8.70;;;7.90;;
38611;SDS011;24368;52.156;20.788;2022-12-07T19:24:20;8.30;;;7.40;;
38611;SDS011;24368;52.156;20.788;2022-12-07T19:29:21;8.40;;;7.60;;
38611;SDS011;24368;52.156;20.788;2022-12-07T19:34:22;8.00;;;7.20;;
38611;SDS011;24368;52.156;20.788;2022-12-07T19:39:23;8.20;;;6.50;;
38611;SDS011;24368;52.156;20.788;2022-12-07T19:44:25;8.10;;;7.40;;
38611;SDS011;24368;52.156;20.788;2022-12-07T19:49:29;7.20;;;6.50;;
38611;SDS011;24368;52.156;20.788;2022-12-07T19:54:32;7.60;;;6.90;;
38611;SDS011;24368;52.156;20.788;2022-12-07T19:59:35;7.80;;;6.70;;
38611;SDS011;24368;52.156;20.788;2022-12-07T20:04:36;7.70;;;6.90;;
38611;SDS011;24368;52.156;20.788;2022-12-07T20:09:37;9.60;;;7.50;;
38611;SDS011;24368;52.156;20.788;2022-12-07T20:14:38;7.80;;;7.00;;
38611;SDS011;24368;52.156;20.788;2022-12-07T20:19:39;7.40;;;6.70;;
38611;SDS011;24368;52.156;20.788;2022-12-07T20:24:41;6.90;;;6.10;;
38611;SDS011;24368;52.156;20.788;2022-12-07T20:29:42;5.60;;;4.80;;
38611;SDS011;24368;52.156;20.788;2022-12-07T20:34:43;5.40;;;4.90;;
38611;SDS011;24368;52.156;20.788;2022-12-07T20:39:46;5.80;;;5.30;;
38611;SDS011;24368;52.156;20.788;2022-12-07T20:44:50;6.80;;;5.50;;
38611;SDS011;24368;52.156;20.788;2022-12-07T20:49:55;9.10;;;6.70;;
38611;SDS011;24368;52.156;20.788;2022-12-07T20:54:56;6.70;;;5.60;;
38611;SDS011;24368;52.156;20.788;2022-12-07T20:59:57;9.40;;;5.60;;
38611;SDS011;24368;52.156;20.788;2022-12-07T21:04:58;7.70;;;5.70;;
38611;SDS011;24368;52.156;20.788;2022-12-07T21:09:59;7.00;;;5.80;;
38611;SDS011;24368;52.156;20.788;2022-12-07T21:15:00;7.10;;;5.60;;
38611;SDS011;24368;52.156;20.788;2022-12-07T21:20:01;8.60;;;6.90;;
38611;SDS011;24368;52.156;20.788;2022-12-07T21:25:02;7.70;;;5.80;;
38611;SDS011;24368;52.156;20.788;2022-12-07T21:30:04;9.50;;;6.00;;
38611;SDS011;24368;52.156;20.788;2022-12-07T21:35:06;7.40;;;6.30;;
38611;SDS011;24368;52.156;20.788;2022-12-07T21:40:07;7.30;;;6.20;;
38611;SDS011;24368;52.156;20.788;2022-12-07T21:45:09;7.80;;;5.50;;
38611;SDS011;24368;52.156;20.788;2022-12-07T21:50:10;5.40;;;4.80;;
38611;SDS011;24368;52.156;20.788;2022-12-07T21:55:11;8.00;;;5.80;;
38611;SDS011;24368;52.156;20.788;2022-12-07T22:00:13;7.20;;;4.80;;
38611;SDS011;24368;52.156;20.788;2022-12-07T22:05:14;6.90;;;4.40;;
38611;SDS011;24368;52.156;20.788;2022-12-07T22:10:15;9.50;;;4.90;;
38611;SDS011;24368;52.156;20.788;2022-12-07T22:15:27;6.70;;;5.00;;
38611;SDS011;24368;52.156;20.788;2022-12-07T22:20:28;6.50;;;5.30;;
38611;SDS011;24368;52.156;20.788;2022-12-07T22:25:29;11.10;;;5.70;;
38611;SDS011;24368;52.156;20.788;2022-12-07T22:30:30;8.10;;;5.60;;
38611;SDS011;24368;52.156;20.788;2022-12-07T22:35:31;10.10;;;6.10;;
38611;SDS011;24368;52.156;20.788;2022-12-07T22:40:33;6.70;;;5.40;;
38611;SDS011;24368;52.156;20.788;2022-12-07T22:45:34;9.50;;;6.40;;
38611;SDS011;24368;52.156;20.788;2022-12-07T22:50:34;6.60;;;5.20;;
38611;SDS011;24368;52.156;20.788;2022-12-07T22:55:39;5.90;;;4.70;;
38611;SDS011;24368;52.156;20.788;2022-12-07T23:00:41;8.50;;;6.10;;
38611;SDS011;24368;52.156;20.788;2022-12-07T23:05:45;6.70;;;4.90;;
38611;SDS011;24368;52.156;20.788;2022-12-07T23:10:48;7.10;;;5.40;;
38611;SDS011;24368;52.156;20.788;2022-12-07T23:15:49;7.00;;;4.60;;
38611;SDS011;24368;52.156;20.788;2022-12-07T23:20:50;5.50;;;4.90;;
38611;SDS011;24368;52.156;20.788;2022-12-07T23:25:51;5.60;;;5.00;;
38611;SDS011;24368;52.156;20.788;2022-12-07T23:30:53;5.20;;;4.70;;
38611;SDS011;24368;52.156;20.788;2022-12-07T23:35:53;4.60;;;4.00;;
38611;SDS011;24368;52.156;20.788;2022-12-07T23:40:55;4.90;;;3.80;;
38611;SDS011;24368;52.156;20.788;2022-12-07T23:45:55;4.40;;;3.00;;
38611;SDS011;24368;52.156;20.788;2022-12-07T23:50:57;3.80;;;2.70;;
38611;SDS011;24368;52.156;20.788;2022-12-07T23:55:59;3.20;;;2.40;;
